Weather observations for the past three days for
Noorvik
Imperial (Metric)
Date Time (akdt) Wind (mph) Vis. (mi.) Weather Sky Cond. Temperature (ºF) Relative Humidity Wind Chill (°F) Heat Index (°F) Pressure Precipitation (in)
Air Dwpt 6 hour altimeter (in) sea level (mb) 1 hr 3 hr 6 hr
Max. Min.
07 18:56 SW 12 8.00 Fair CLR 35.1 19 52% 28 30.13 1020.5
07 17:56 W 12 8.00 A Few Clouds FEW060 34 18 52% 26 30.14 1020.7
07 16:56 W 14 9.00 Partly Cloudy SCT060 33.1 19 56% 24 30.15 1020.9
07 15:56 E 8 G 16 9.00 A Few Clouds FEW055 35.1 12.9 36 28.9 40% 29 30.14 1020.6
07 14:56 Vrbl 6 8.00 Fair CLR 34 12.9 42% 29 30.14 1020.7
07 13:56 NE 7 8.00 Fair CLR 33.1 12.9 43% 28 30.14 1020.7
07 12:56 NE 9 8.00 Fair CLR 32 15.1 50% 25 30.14 1020.7
07 11:56 NE 6 8.00 Mostly Cloudy BKN034 30.9 17.1 56% 26 30.14 1020.7
07 10:56 E 5 8.00 Fair CLR 32 17.1 54% 28 30.14 1020.5
07 09:56 E 3 8.00 Fair CLR 28 17.1 28.9 19 63% 30.13 1020.4
07 08:56 E 6 8.00 Fair CLR 26.1 19 75% 20 30.12 1020.0
07 07:56 NE 6 7.00 Fair CLR 21 18 88% 14 30.11 1019.6
07 06:56 N 6 8.00 Fair CLR 19.9 16 85% 13 30.1 1019.2
07 05:56 NW 5 8.00 Fair CLR 19 16 88% 13 30.09 1019.0
07 04:56 W 3 8.00 Fair CLR 19.9 16 85% 30.08 1018.7
07 03:56 NW 3 9.00 Partly Cloudy SCT090 23 17.1 30.9 21.9 78% 30.08 1018.6
07 02:56 NW 3 9.00 Fair CLR 24.1 18 77% 30.07 1018.4
07 01:56 NW 3 9.00 Overcast OVC095 25 18 75% 30.07 1018.3
07 00:56 NW 5 8.00 Overcast OVC100 26.1 18 71% 21 30.06 1017.9
06 23:56 NW 8 8.00 Overcast OVC110 27 18 69% 19 30.05 1017.5
06 22:56 N 5 8.00 Partly Cloudy SCT042 28 18 66% 24 30.04 1017.2
06 21:56 N 10 9.00 Overcast OVC042 30.9 17.1 32 27 56% 23 30.03 1016.9
06 20:56 NW 8 8.00 Overcast OVC042 30.9 18 59% 24 30.03 1016.9
06 19:56 NE 8 8.00 Overcast BKN036 OVC080 30 19 64% 23 30.02 1016.6
06 18:56 N 10 8.00 Overcast OVC036 32 18 56% 24 30.01 1016.2
06 17:56 NW 13 7.00 Overcast BKN032 OVC040 28.9 19 66% 19 30 1016.1
06 16:56 W 16 7.00 Light Snow FEW027 BKN047 OVC060 28 19 69% 17 30.01 1016.2
06 14:56 W 16 G 24 7.00 Overcast BKN019 OVC055 26.1 19 75% 14 30 1016.1
06 13:56 W 18 G 28 8.00 Mostly Cloudy BKN017 BKN055 27 19 72% 15 30 1016.1
06 12:56 W 21 8.00 Overcast and Breezy FEW019 SCT024 OVC055 28 19 69% 15 30 1015.8
06 11:56 W 17 7.00 Overcast OVC045 25 18 75% 13 29.99 1015.5
06 10:56 W 16 7.00 Overcast FEW017 OVC045 24.1 17.1 75% 12 29.99 1015.5
06 09:56 W 13 7.00 Mostly Cloudy BKN015 BKN049 23 17.1 23 19 78% 12 29.98 1015.2
06 08:56 W 15 7.00 Mostly Cloudy BKN047 21.9 16 78% 10 29.98 1015.1
06 07:56 W 15 7.00 Partly Cloudy SCT013 19.9 15.1 81% 7 29.97 1014.9
06 06:56 W 12 8.00 Overcast OVC015 19.9 16 85% 9 29.96 1014.7
06 05:56 W 15 8.00 Overcast OVC011 19.9 17.1 89% 7 29.96 1014.5
06 04:56 W 14 8.00 Overcast OVC011 21 17.1 85% 9 29.95 1014.3
06 03:56 W 14 10.00 Overcast OVC011 21 18 28 19 88% 9 29.95 1014.2
06 02:56 W 12 10.00 Fair CLR 19 18 96% 8 29.94 1013.8
06 01:56 W 15 10.00 Fair CLR 19 17.1 92% 6 29.93 1013.6
06 00:56 W 14 8.00 Fair CLR 19.9 18 92% 8 29.92 1013.1
05 23:56 W 15 8.00 Fair CLR 21.9 19.9 92% 10 29.9 1012.6
05 22:56 W 15 G 21 8.00 Fair CLR 25 21 85% 13 29.9 1012.4
05 21:56 W 17 8.00 Fair CLR 28 21.9 36 28 78% 17 29.89 1012.2
05 20:56 W 16 8.00 Fair CLR 30.9 21.9 69% 21 29.88 1011.8
05 19:56 W 21 G 26 9.00 Fair and Breezy CLR 33.1 21 61% 22 29.87 1011.6
05 18:56 NW 22 9.00 Fair and Breezy CLR 35.1 19 52% 24 29.86 1011.3
05 17:56 W 23 9.00 Fair and Breezy CLR 35.1 19.9 54% 24 29.85 1011.0
05 16:56 NW 20 G 28 8.00 A Few Clouds FEW045 36 21 55% 26 29.84 1010.7
05 15:56 W 24 9.00 Fair and Breezy CLR 35.1 21 36 28.9 57% 24 29.84 1010.6
05 14:56 W 21 8.00 Fair and Breezy CLR 35.1 21 57% 25 29.84 1010.5
05 13:56 W 22 9.00 Fair and Breezy CLR 35.1 21 57% 24 29.83 1010.3
05 12:56 W 16 8.00 Fair CLR 34 21 59% 24 29.84 1010.5
05 11:56 NW 16 8.00 Fair CLR 32 21.9 66% 22 29.84 1010.4
05 10:56 NW 16 9.00 Fair CLR 30 21.9 72% 19 29.84 1010.7
05 09:56 NW 14 9.00 Fair CLR 28.9 21.9 28.9 19.9 75% 19 29.85 1011.0
05 08:56 W 13 9.00 Fair CLR 26.1 21 81% 16 29.85 1010.9
05 07:56 NW 13 8.00 Fair CLR 23 19.9 88% 12 29.85 1010.9
05 06:56 W 14 8.00 Fair CLR 21 19 92% 9 29.85 1010.9
05 05:56 NW 13 9.00 Fair CLR 19.9 19 96% 8 29.86 1011.1
05 04:56 NW 12 8.00 Fair CLR 21 19 92% 10 29.87 1011.4
05 03:56 NW 10 10.00 Fair CLR 21.9 19.9 30.9 21.9 92% 12 29.88 1011.8
05 02:56 NW 9 10.00 Fair CLR 23 19.9 88% 14 29.89 1012.3
05 01:56 NW 10 9.00 Fair CLR 23 19.9 88% 13 29.91 1012.9
05 00:56 NW 10 9.00 Fair CLR 24.1 21 88% 15 29.92 1013.3
04 23:56 NW 8 9.00 Fair CLR 27 21.9 81% 19 29.94 1013.8
04 22:56 N 9 9.00 Fair CLR 30.9 21 67% 24 29.94 1014.0
04 21:56 NW 10 8.00 Fair CLR 30.9 25 35.1 30.9 79% 23 29.96 1014.7
04 20:56 NW 15 8.00 Fair CLR 32 23 69% 22 29.98 1015.3
Date Time (akdt) Wind (mph) Vis. (mi.) Weather Sky Cond. Air Dwpt Max. Min. Relative Humidity Wind Chill (°F) Heat Index (°F) altimeter (in) sea level (mb) 1 hr 3 hr 6 hr
6 hour
Temperature (ºF) Pressure Precipitation (in)